createdAt,value
2022-10-17T00:01:03.683Z,99.77
2022-10-17T00:03:31.475Z,99.96
2022-10-17T00:05:59.510Z,99.92
2022-10-17T00:08:26.512Z,100.00
2022-10-17T00:11:09.551Z,99.94
2022-10-17T00:13:36.580Z,100.00
2022-10-17T00:16:04.445Z,100.00
2022-10-17T00:18:32.592Z,100.00
2022-10-17T00:20:59.684Z,100.00
2022-10-17T00:23:28.582Z,100.00
2022-10-17T00:26:05.299Z,100.00
2022-10-17T00:28:32.745Z,100.00
2022-10-17T00:31:04.043Z,100.00
2022-10-17T00:33:33.159Z,100.00
2022-10-17T00:36:13.560Z,100.00
2022-10-17T00:38:43.923Z,100.00
2022-10-17T00:41:15.124Z,100.00
2022-10-17T00:44:02.944Z,100.00
2022-10-17T00:46:38.219Z,100.00
2022-10-17T00:49:11.311Z,100.00
2022-10-17T00:51:50.760Z,100.00
2022-10-17T00:54:24.568Z,100.00
2022-10-17T00:56:53.424Z,100.00
2022-10-17T00:59:23.571Z,100.00
2022-10-17T01:02:11.589Z,100.00
2022-10-17T01:04:43.947Z,100.00
2022-10-17T01:07:11.378Z,100.00
2022-10-17T01:09:41.674Z,100.00
2022-10-17T01:12:28.802Z,100.00
2022-10-17T01:15:30.042Z,100.00
2022-10-17T01:18:15.215Z,100.00
2022-10-17T01:21:29.165Z,100.00
2022-10-17T01:24:41.091Z,100.00
2022-10-17T01:27:43.288Z,100.00
2022-10-17T01:30:43.878Z,100.00
2022-10-17T01:33:18.284Z,100.00
2022-10-17T01:35:55.434Z,100.00
2022-10-17T01:38:32.455Z,100.00
2022-10-17T01:41:17.342Z,100.00
2022-10-17T01:44:04.832Z,100.00
2022-10-17T01:46:40.243Z,100.00
2022-10-17T01:49:14.062Z,100.00
2022-10-17T01:51:55.111Z,100.00
2022-10-17T01:54:38.513Z,100.00
2022-10-17T01:57:24.623Z,100.00
2022-10-17T01:59:56.212Z,100.00
2022-10-17T02:02:25.880Z,100.00
2022-10-17T02:04:56.626Z,100.00
2022-10-17T02:07:24.966Z,100.00
2022-10-17T02:09:53.206Z,100.00
2022-10-17T02:12:41.767Z,100.00
2022-10-17T02:15:51.744Z,100.00
2022-10-17T02:18:46.748Z,100.00
2022-10-17T02:21:19.686Z,100.00
2022-10-17T02:23:59.532Z,100.00
2022-10-17T02:26:47.934Z,100.00
2022-10-17T02:29:28.390Z,100.00
2022-10-17T02:32:06.959Z,100.00
2022-10-17T02:34:43.675Z,100.00
2022-10-17T02:37:18.372Z,100.00
2022-10-17T02:39:47.604Z,100.00
2022-10-17T02:42:16.122Z,100.00
2022-10-17T02:44:46.188Z,100.00
2022-10-17T02:47:42.948Z,100.00
2022-10-17T02:50:11.671Z,100.00
2022-10-17T02:53:01.280Z,100.00
2022-10-17T02:55:39.900Z,100.00
2022-10-17T02:58:16.509Z,100.00
2022-10-17T03:00:44.207Z,100.00
2022-10-17T03:03:29.404Z,100.00
2022-10-17T03:06:00.571Z,100.00
2022-10-17T03:08:27.904Z,100.00
2022-10-17T03:10:56.469Z,100.00
2022-10-17T03:13:24.176Z,100.00
2022-10-17T03:15:51.394Z,100.00
2022-10-17T03:18:18.632Z,100.00
2022-10-17T03:20:47.818Z,100.00
2022-10-17T03:23:14.886Z,100.00
2022-10-17T03:25:42.153Z,100.00
2022-10-17T03:28:11.839Z,100.00
2022-10-17T03:30:39.366Z,100.00
2022-10-17T03:33:07.285Z,100.00
2022-10-17T03:35:34.283Z,100.00
2022-10-17T03:38:02.047Z,100.00
2022-10-17T03:40:29.919Z,100.00
2022-10-17T03:42:57.115Z,100.00
2022-10-17T03:45:24.319Z,100.00
2022-10-17T03:47:52.779Z,100.00
2022-10-17T03:50:19.881Z,100.00
2022-10-17T03:52:49.557Z,100.00
2022-10-17T03:55:17.386Z,100.00
2022-10-17T03:57:45.796Z,100.00
2022-10-17T04:00:14.851Z,100.00
2022-10-17T04:02:42.000Z,100.00
2022-10-17T04:05:14.668Z,100.00
2022-10-17T04:07:41.813Z,100.00
2022-10-17T04:10:10.896Z,100.00
2022-10-17T04:12:38.029Z,100.00
2022-10-17T04:15:06.736Z,100.00
2022-10-17T04:17:37.296Z,100.00
2022-10-17T04:20:07.771Z,100.00
2022-10-17T04:22:34.952Z,100.00
2022-10-17T04:25:02.450Z,100.00
2022-10-17T04:27:41.855Z,100.00
2022-10-17T04:30:10.058Z,100.00
2022-10-17T04:32:38.920Z,100.00
2022-10-17T04:35:21.974Z,100.00
2022-10-17T04:37:57.072Z,100.00
2022-10-17T04:40:25.436Z,100.00
2022-10-17T04:42:53.395Z,100.00
2022-10-17T04:45:24.486Z,100.00
2022-10-17T04:47:57.427Z,100.00
2022-10-17T04:50:25.127Z,100.00
2022-10-17T04:53:14.548Z,100.00
2022-10-17T04:55:41.593Z,100.00
2022-10-17T04:58:09.110Z,100.00
2022-10-17T05:00:36.267Z,100.00
2022-10-17T05:03:19.119Z,100.00
2022-10-17T05:05:47.584Z,100.00
2022-10-17T05:08:14.950Z,100.00
2022-10-17T05:10:46.204Z,100.00
2022-10-17T05:13:14.624Z,100.00
2022-10-17T05:15:41.806Z,100.00
2022-10-17T05:18:09.842Z,100.00
2022-10-17T05:20:37.546Z,100.00
2022-10-17T05:23:06.722Z,100.00
2022-10-17T05:25:39.223Z,100.00
2022-10-17T05:28:06.477Z,100.00
2022-10-17T05:30:36.857Z,100.00
2022-10-17T05:33:06.703Z,100.00
2022-10-17T05:35:34.314Z,100.00
2022-10-17T05:38:02.311Z,100.00
2022-10-17T05:40:31.820Z,100.00
2022-10-17T05:42:59.063Z,100.00
2022-10-17T05:45:26.409Z,100.00
2022-10-17T05:47:53.409Z,100.00
2022-10-17T05:50:22.015Z,100.00
2022-10-17T05:53:05.251Z,100.00
2022-10-17T05:55:37.626Z,100.00
2022-10-17T05:58:05.286Z,100.00
2022-10-17T06:00:37.922Z,100.00
2022-10-17T06:03:30.509Z,100.00
2022-10-17T06:06:05.171Z,100.00
2022-10-17T06:08:32.810Z,100.00
2022-10-17T06:11:06.089Z,100.00
2022-10-17T06:13:39.196Z,100.00
2022-10-17T06:16:13.586Z,100.00
2022-10-17T06:18:41.597Z,100.00
2022-10-17T06:21:12.606Z,100.00
2022-10-17T06:23:45.015Z,100.00
2022-10-17T06:26:17.714Z,100.00
2022-10-17T06:28:45.764Z,100.00
2022-10-17T06:31:17.917Z,100.00
2022-10-17T06:33:46.624Z,100.00
2022-10-17T06:36:15.595Z,100.00
2022-10-17T06:38:45.519Z,100.00
2022-10-17T06:41:21.872Z,100.00
2022-10-17T06:43:53.072Z,100.00
2022-10-17T06:46:40.226Z,100.00
2022-10-17T06:49:10.373Z,100.00
2022-10-17T06:51:49.058Z,100.00
2022-10-17T06:54:19.509Z,100.00
2022-10-17T06:57:08.419Z,100.00
2022-10-17T06:59:51.310Z,100.00
2022-10-17T07:02:24.216Z,100.00
2022-10-17T07:04:52.359Z,100.00
2022-10-17T07:07:19.392Z,100.00
2022-10-17T07:09:46.462Z,100.00
2022-10-17T07:12:15.766Z,100.00
2022-10-17T07:14:47.217Z,99.94
2022-10-17T07:17:14.441Z,99.87
2022-10-17T07:19:43.508Z,99.61
2022-10-17T07:22:13.151Z,99.22
2022-10-17T07:24:43.844Z,98.83
2022-10-17T07:27:46.128Z,98.80
2022-10-17T07:30:15.537Z,98.54
2022-10-17T07:32:54.486Z,98.44
2022-10-17T07:35:21.626Z,98.21
2022-10-17T07:37:48.728Z,97.81
2022-10-17T07:40:18.809Z,98.07
2022-10-17T07:42:45.868Z,98.07
2022-10-17T07:45:13.607Z,98.01
2022-10-17T07:47:43.256Z,97.53
2022-10-17T07:50:13.354Z,96.88
2022-10-17T07:52:42.671Z,96.62
2022-10-17T07:55:10.090Z,97.01
2022-10-17T07:57:37.075Z,96.69
2022-10-17T08:00:06.628Z,96.72
2022-10-17T08:02:39.607Z,96.87
2022-10-17T08:05:07.215Z,97.02
2022-10-17T08:07:34.232Z,96.88
2022-10-17T08:10:01.559Z,97.00
2022-10-17T08:12:32.380Z,97.08
2022-10-17T08:15:01.217Z,97.25
2022-10-17T08:17:30.191Z,97.29
2022-10-17T08:19:57.214Z,97.32
2022-10-17T08:22:25.260Z,97.54
2022-10-17T08:24:53.595Z,97.11
2022-10-17T08:27:24.911Z,96.39
2022-10-17T08:29:53.467Z,96.69
2022-10-17T08:32:24.932Z,97.14
2022-10-17T08:34:56.348Z,97.17
2022-10-17T08:37:23.699Z,97.04
2022-10-17T08:39:50.699Z,97.29
2022-10-17T08:42:50.299Z,97.33
2022-10-17T08:45:42.932Z,97.10
2022-10-17T08:48:18.619Z,96.98
2022-10-17T08:50:59.406Z,96.80
2022-10-17T08:53:57.975Z,96.59
2022-10-17T08:56:48.036Z,96.83
2022-10-17T08:59:25.729Z,96.80
2022-10-17T09:02:27.358Z,96.92
2022-10-17T09:05:34.795Z,96.82
2022-10-17T09:08:31.719Z,97.22
2022-10-17T09:11:26.296Z,97.15
2022-10-17T09:14:43.102Z,97.16
2022-10-17T09:17:56.928Z,97.08
2022-10-17T09:20:30.950Z,97.49
2022-10-17T09:23:12.543Z,97.34
2022-10-17T09:25:52.499Z,97.16
2022-10-17T09:28:34.012Z,96.80
2022-10-17T09:31:13.316Z,95.89
2022-10-17T09:33:59.970Z,95.95
2022-10-17T09:36:39.416Z,95.74
2022-10-17T09:39:20.463Z,95.28
2022-10-17T09:41:52.997Z,95.16
2022-10-17T09:44:35.463Z,95.07
2022-10-17T09:47:22.648Z,94.23
2022-10-17T09:49:50.890Z,94.14
2022-10-17T09:52:34.288Z,94.02
2022-10-17T09:55:15.931Z,94.98
2022-10-17T09:57:56.839Z,95.59
2022-10-17T10:00:32.680Z,96.44
2022-10-17T10:03:24.914Z,97.12
2022-10-17T10:06:16.670Z,97.64
2022-10-17T10:09:03.328Z,98.22
2022-10-17T10:11:49.238Z,98.52
2022-10-17T10:14:36.167Z,99.17
2022-10-17T10:17:38.314Z,99.31
2022-10-17T10:20:32.231Z,99.49
2022-10-17T10:23:15.140Z,99.89
2022-10-17T10:25:56.952Z,100.00
2022-10-17T10:28:34.478Z,100.00
2022-10-17T10:31:10.041Z,100.00
2022-10-17T10:33:46.981Z,100.00
2022-10-17T10:36:16.587Z,100.00
2022-10-17T10:38:57.122Z,100.00
2022-10-17T10:41:27.742Z,100.00
2022-10-17T10:43:56.350Z,100.00
2022-10-17T10:46:29.891Z,100.00
2022-10-17T10:49:00.999Z,100.00
2022-10-17T10:51:49.506Z,100.00
2022-10-17T10:54:25.142Z,100.00
2022-10-17T10:57:00.064Z,100.00
2022-10-17T10:59:39.751Z,100.00
2022-10-17T11:02:21.977Z,100.00
2022-10-17T11:05:11.647Z,100.00
2022-10-17T11:07:58.497Z,100.00
2022-10-17T11:10:46.724Z,100.00
2022-10-17T11:13:28.923Z,100.00
2022-10-17T11:16:18.339Z,100.00
2022-10-17T11:19:16.685Z,100.00
2022-10-17T11:22:05.370Z,100.00
2022-10-17T11:24:57.084Z,100.00
2022-10-17T11:27:26.084Z,100.00
2022-10-17T11:29:58.164Z,100.00
2022-10-17T11:32:47.530Z,100.00
2022-10-17T11:35:25.077Z,100.00
2022-10-17T11:38:16.528Z,100.00
2022-10-17T11:40:50.900Z,100.00
2022-10-17T11:43:32.176Z,100.00
2022-10-17T11:46:15.949Z,100.00
2022-10-17T11:49:07.327Z,100.00
2022-10-17T11:52:10.191Z,100.00
2022-10-17T11:54:50.948Z,100.00
2022-10-17T11:57:50.403Z,100.00
2022-10-17T12:00:48.871Z,100.00
2022-10-17T12:04:13.513Z,100.00
2022-10-17T12:07:27.860Z,100.00
2022-10-17T12:10:29.178Z,100.00
2022-10-17T12:12:56.543Z,100.00
2022-10-17T12:15:23.507Z,100.00
2022-10-17T12:18:02.933Z,100.00
2022-10-17T12:20:36.524Z,100.00
2022-10-17T12:23:13.252Z,100.00
2022-10-17T12:26:05.477Z,100.00
2022-10-17T12:28:45.578Z,100.00
2022-10-17T12:31:19.849Z,100.00
2022-10-17T12:33:51.335Z,100.00
2022-10-17T12:36:28.695Z,100.00
2022-10-17T12:39:01.688Z,100.00
2022-10-17T12:41:39.123Z,100.00
2022-10-17T12:44:15.713Z,100.00
2022-10-17T12:47:29.367Z,100.00
2022-10-17T12:49:56.877Z,100.00
2022-10-17T12:52:31.941Z,100.00
2022-10-17T12:55:11.662Z,100.00
2022-10-17T12:57:59.771Z,100.00
2022-10-17T13:00:59.466Z,100.00
2022-10-17T13:03:42.419Z,100.00
2022-10-17T13:06:24.685Z,100.00
2022-10-17T13:09:24.877Z,100.00
2022-10-17T13:11:55.179Z,100.00
2022-10-17T13:14:24.880Z,100.00
2022-10-17T13:16:57.417Z,100.00
2022-10-17T13:19:30.689Z,100.00
2022-10-17T13:22:06.716Z,100.00
2022-10-17T13:24:39.113Z,100.00
2022-10-17T13:27:32.465Z,100.00
2022-10-17T13:30:03.719Z,100.00
2022-10-17T13:32:39.742Z,100.00
2022-10-17T13:35:17.192Z,100.00
2022-10-17T13:37:51.572Z,100.00
2022-10-17T13:40:49.682Z,100.00
2022-10-17T13:43:21.663Z,100.00
2022-10-17T13:45:54.163Z,100.00
2022-10-17T13:48:26.748Z,100.00
2022-10-17T13:51:02.461Z,100.00
2022-10-17T13:53:35.826Z,100.00
2022-10-17T13:56:29.880Z,100.00
2022-10-17T13:59:25.535Z,100.00
2022-10-17T14:01:55.406Z,100.00
2022-10-17T14:04:22.449Z,100.00
2022-10-17T14:06:52.255Z,100.00
2022-10-17T14:09:27.663Z,100.00
2022-10-17T14:12:11.031Z,100.00
2022-10-17T14:15:09.825Z,100.00
2022-10-17T14:17:39.410Z,100.00
2022-10-17T14:23:21.853Z,100.00
2022-10-17T14:25:44.662Z,100.00
2022-10-17T14:28:12.569Z,100.00
2022-10-17T14:30:57.856Z,100.00
2022-10-17T14:33:31.105Z,100.00
2022-10-17T14:36:01.718Z,100.00
2022-10-17T14:38:30.421Z,100.00
2022-10-17T14:44:22.896Z,100.00
2022-10-17T14:47:01.578Z,100.00
2022-10-17T14:49:40.754Z,100.00
2022-10-17T14:52:18.391Z,100.00
2022-10-17T14:54:50.446Z,100.00
2022-10-17T14:57:32.720Z,100.00
2022-10-17T14:59:59.967Z,100.00
2022-10-17T15:02:30.198Z,100.00
2022-10-17T15:04:57.821Z,100.00
2022-10-17T15:07:24.974Z,100.00
2022-10-17T15:09:54.220Z,100.00
2022-10-17T15:12:25.376Z,100.00
2022-10-17T15:14:54.239Z,100.00
2022-10-17T15:17:28.588Z,100.00
2022-10-17T15:19:57.323Z,100.00
2022-10-17T15:22:24.692Z,100.00
2022-10-17T15:24:51.999Z,100.00
2022-10-17T15:27:26.296Z,100.00
2022-10-17T15:29:53.303Z,100.00
2022-10-17T15:32:20.379Z,100.00
2022-10-17T15:34:47.494Z,100.00
2022-10-17T15:37:24.036Z,100.00
2022-10-17T15:39:55.161Z,100.00
2022-10-17T15:42:27.976Z,100.00
2022-10-17T15:44:58.365Z,100.00
2022-10-17T15:47:34.917Z,100.00
2022-10-17T15:50:06.920Z,100.00
2022-10-17T15:52:35.958Z,100.00
2022-10-17T15:55:24.179Z,100.00
2022-10-17T15:57:52.607Z,100.00
2022-10-17T16:00:24.390Z,100.00
2022-10-17T16:02:52.195Z,100.00
2022-10-17T16:05:25.800Z,100.00
2022-10-17T16:07:55.022Z,100.00
2022-10-17T16:10:24.051Z,100.00
2022-10-17T16:12:52.415Z,100.00
2022-10-17T16:15:28.492Z,100.00
2022-10-17T16:18:01.656Z,100.00
2022-10-17T16:20:32.547Z,100.00
2022-10-17T16:23:03.447Z,100.00
2022-10-17T16:25:32.823Z,100.00
2022-10-17T16:28:01.191Z,100.00
2022-10-17T16:30:32.005Z,100.00
2022-10-17T16:33:00.217Z,100.00
2022-10-17T16:35:34.740Z,100.00
2022-10-17T16:38:07.851Z,100.00
2022-10-17T16:40:40.486Z,100.00
2022-10-17T16:43:12.954Z,100.00
2022-10-17T16:45:46.093Z,100.00
2022-10-17T16:48:13.853Z,100.00
2022-10-17T16:50:42.504Z,100.00
2022-10-17T16:53:10.383Z,100.00
2022-10-17T16:55:38.583Z,100.00
2022-10-17T16:58:06.374Z,100.00
2022-10-17T17:00:34.477Z,100.00
2022-10-17T17:03:02.233Z,100.00
2022-10-17T17:05:31.358Z,100.00
2022-10-17T17:08:00.313Z,100.00
2022-10-17T17:10:28.056Z,100.00
2022-10-17T17:12:55.904Z,100.00
2022-10-17T17:15:23.539Z,100.00
2022-10-17T17:17:55.232Z,100.00
2022-10-17T17:20:24.239Z,100.00
2022-10-17T17:23:17.537Z,100.00
2022-10-17T17:25:45.525Z,100.00
2022-10-17T17:28:14.431Z,100.00
2022-10-17T17:30:41.866Z,100.00
2022-10-17T17:33:10.286Z,100.00
2022-10-17T17:35:40.102Z,100.00
2022-10-17T17:38:07.980Z,100.00
2022-10-17T17:40:35.872Z,100.00
2022-10-17T17:43:03.950Z,100.00
2022-10-17T17:45:31.905Z,100.00
2022-10-17T17:48:03.156Z,100.00
2022-10-17T17:50:31.006Z,100.00
2022-10-17T17:52:59.150Z,100.00
2022-10-17T17:55:27.085Z,100.00
2022-10-17T17:57:56.975Z,100.00
2022-10-17T18:00:24.973Z,100.00
2022-10-17T18:02:53.285Z,100.00
2022-10-17T18:05:26.785Z,100.00
2022-10-17T18:07:54.560Z,100.00
2022-10-17T18:10:22.662Z,100.00
2022-10-17T18:12:50.451Z,100.00
2022-10-17T18:15:18.244Z,100.00
2022-10-17T18:17:45.532Z,100.00
2022-10-17T18:20:12.556Z,100.00
2022-10-17T18:22:39.680Z,100.00
2022-10-17T18:25:07.221Z,100.00
2022-10-17T18:27:34.244Z,100.00
2022-10-17T18:30:01.296Z,100.00
2022-10-17T18:32:31.900Z,100.00
2022-10-17T18:34:59.182Z,100.00
2022-10-17T18:37:26.218Z,100.00
2022-10-17T18:39:55.843Z,100.00
2022-10-17T18:42:23.400Z,100.00
2022-10-17T18:44:50.586Z,100.00
2022-10-17T18:47:17.656Z,100.00
2022-10-17T18:49:44.767Z,100.00
2022-10-17T18:52:11.899Z,100.00
2022-10-17T18:54:39.356Z,100.00
2022-10-17T18:57:06.905Z,100.00
2022-10-17T18:59:34.267Z,100.00
2022-10-17T19:02:01.386Z,100.00
2022-10-17T19:04:28.653Z,100.00
2022-10-17T19:06:55.724Z,100.00
2022-10-17T19:09:23.821Z,100.00
2022-10-17T19:11:50.974Z,100.00
2022-10-17T19:14:18.944Z,100.00
2022-10-17T19:16:50.841Z,100.00
2022-10-17T19:19:23.323Z,100.00
2022-10-17T19:21:51.739Z,100.00
2022-10-17T19:24:23.329Z,100.00
2022-10-17T19:26:53.525Z,100.00
2022-10-17T19:29:23.220Z,100.00
2022-10-17T19:31:50.660Z,100.00
2022-10-17T19:34:19.307Z,100.00
2022-10-17T19:36:46.670Z,100.00
2022-10-17T19:39:18.764Z,100.00
2022-10-17T19:41:48.247Z,100.00
2022-10-17T19:44:16.833Z,100.00
2022-10-17T19:46:46.621Z,100.00
2022-10-17T19:49:14.455Z,100.00
2022-10-17T19:51:41.784Z,100.00
2022-10-17T19:54:09.609Z,100.00
2022-10-17T19:56:37.924Z,100.00
2022-10-17T19:59:06.713Z,100.00
2022-10-17T20:01:38.969Z,100.00
2022-10-17T20:04:08.589Z,100.00
2022-10-17T20:06:35.608Z,100.00
2022-10-17T20:09:04.360Z,100.00
2022-10-17T20:11:31.931Z,100.00
2022-10-17T20:14:01.729Z,100.00
2022-10-17T20:16:34.494Z,100.00
2022-10-17T20:19:09.404Z,100.00
2022-10-17T20:21:37.334Z,100.00
2022-10-17T20:24:12.023Z,100.00
2022-10-17T20:26:39.994Z,100.00
2022-10-17T20:29:14.480Z,100.00
2022-10-17T20:31:44.163Z,100.00
2022-10-17T20:34:15.196Z,100.00
2022-10-17T20:36:43.531Z,100.00
2022-10-17T20:39:13.770Z,100.00
2022-10-17T20:41:41.167Z,100.00
2022-10-17T20:44:09.128Z,100.00
2022-10-17T20:46:45.280Z,100.00
2022-10-17T20:49:24.620Z,100.00
2022-10-17T20:51:51.837Z,100.00
2022-10-17T20:54:18.820Z,100.00
2022-10-17T20:56:45.822Z,100.00
2022-10-17T20:59:16.338Z,100.00
2022-10-17T21:01:45.385Z,100.00
2022-10-17T21:04:43.987Z,100.00
2022-10-17T21:07:00.792Z,100.00
2022-10-17T21:09:29.002Z,100.00
2022-10-17T21:11:56.893Z,100.00
2022-10-17T21:14:25.187Z,100.00
2022-10-17T21:16:52.371Z,100.00
2022-10-17T21:19:21.709Z,100.00
2022-10-17T21:21:48.975Z,100.00
2022-10-17T21:24:19.148Z,100.00
2022-10-17T21:26:50.220Z,100.00
2022-10-17T21:29:17.190Z,100.00
2022-10-17T21:31:44.958Z,100.00
2022-10-17T21:34:18.878Z,100.00
2022-10-17T21:36:46.385Z,100.00
2022-10-17T21:39:15.307Z,100.00
2022-10-17T21:41:44.123Z,100.00
2022-10-17T21:44:21.028Z,100.00
2022-10-17T21:46:49.084Z,100.00
2022-10-17T21:49:20.245Z,100.00
2022-10-17T21:51:50.252Z,100.00
2022-10-17T21:54:19.688Z,100.00
2022-10-17T21:56:47.709Z,100.00
2022-10-17T21:59:15.308Z,100.00
2022-10-17T22:01:46.279Z,100.00
2022-10-17T22:04:19.063Z,100.00
2022-10-17T22:06:51.147Z,100.00
2022-10-17T22:09:24.799Z,100.00
2022-10-17T22:11:56.895Z,100.00
2022-10-17T22:14:26.699Z,100.00
2022-10-17T22:16:55.147Z,100.00
2022-10-17T22:19:26.098Z,100.00
2022-10-17T22:21:54.177Z,100.00
2022-10-17T22:24:23.489Z,100.00
2022-10-17T22:26:51.564Z,100.00
2022-10-17T22:29:18.791Z,100.00
2022-10-17T22:31:47.952Z,100.00
2022-10-17T22:34:17.651Z,100.00
2022-10-17T22:36:45.072Z,100.00
2022-10-17T22:39:12.149Z,100.00
2022-10-17T22:41:39.435Z,100.00
2022-10-17T22:44:06.837Z,100.00
2022-10-17T22:46:35.316Z,100.00
2022-10-17T22:49:02.733Z,100.00
2022-10-17T22:51:29.837Z,100.00
2022-10-17T22:53:58.892Z,100.00
2022-10-17T22:56:25.907Z,100.00
2022-10-17T22:58:53.458Z,100.00
2022-10-17T23:01:24.074Z,100.00
2022-10-17T23:03:53.130Z,100.00
2022-10-17T23:06:21.055Z,100.00
2022-10-17T23:08:48.603Z,100.00
2022-10-17T23:11:15.712Z,100.00
2022-10-17T23:13:42.979Z,100.00
2022-10-17T23:16:10.525Z,100.00
2022-10-17T23:18:39.088Z,100.00
2022-10-17T23:21:07.164Z,100.00
2022-10-17T23:23:34.812Z,100.00
2022-10-17T23:26:11.990Z,100.00
2022-10-17T23:28:40.669Z,100.00
2022-10-17T23:31:18.126Z,100.00
2022-10-17T23:33:47.869Z,100.00
2022-10-17T23:36:18.277Z,100.00
2022-10-17T23:38:47.736Z,100.00
2022-10-17T23:41:15.591Z,100.00
2022-10-17T23:43:44.067Z,100.00
2022-10-17T23:46:11.333Z,100.00
2022-10-17T23:48:39.514Z,100.00
2022-10-17T23:51:07.915Z,100.00
2022-10-17T23:53:36.949Z,100.00
2022-10-17T23:56:05.147Z,100.00
2022-10-17T23:58:32.676Z,100.00
